createdAt,value
2017-10-11T00:00:18.609Z,998.1
2017-10-11T00:01:20.057Z,998.1
2017-10-11T00:02:21.536Z,998.1
2017-10-11T00:03:22.970Z,998.1
2017-10-11T00:04:24.448Z,998.1
2017-10-11T00:05:25.915Z,998.1
2017-10-11T00:06:28.319Z,998.1
2017-10-11T00:07:29.762Z,998.1
2017-10-11T00:08:31.331Z,998.1
2017-10-11T00:09:32.807Z,998.1
2017-10-11T00:10:35.236Z,998.1
2017-10-11T00:11:36.784Z,998.1
2017-10-11T00:12:38.286Z,998.1
2017-10-11T00:13:40.688Z,998.1
2017-10-11T00:14:42.165Z,998.1
2017-10-11T00:15:43.586Z,998.1
2017-10-11T00:16:46.041Z,998.1
2017-10-11T00:17:47.471Z,998.1
2017-10-11T00:18:48.960Z,998.1
2017-10-11T00:19:50.425Z,998.1
2017-10-11T00:20:51.869Z,998.1
2017-10-11T00:21:53.394Z,998.1
2017-10-11T00:22:54.929Z,998.0
2017-10-11T00:23:56.425Z,998.1
2017-10-11T00:24:57.871Z,998.0
2017-10-11T00:25:59.366Z,998.0
2017-10-11T00:27:00.841Z,998.0
2017-10-11T00:28:02.339Z,998.0
2017-10-11T00:29:03.832Z,998.1
2017-10-11T00:30:05.479Z,998.0
2017-10-11T00:31:07.979Z,998.0
2017-10-11T00:32:09.527Z,998.0
2017-10-11T00:33:11.093Z,997.9
2017-10-11T00:34:12.519Z,998.0
2017-10-11T00:35:14.001Z,997.9
2017-10-11T00:36:15.514Z,998.0
2017-10-11T00:37:16.972Z,997.9
2017-10-11T00:38:18.500Z,997.9
2017-10-11T00:39:19.974Z,997.9
2017-10-11T00:40:21.444Z,998.0
2017-10-11T00:41:22.938Z,998.0
2017-10-11T00:42:24.428Z,997.9
2017-10-11T00:43:25.877Z,998.0
2017-10-11T00:44:27.404Z,998.0
2017-10-11T00:45:29.988Z,998.0
2017-10-11T00:46:31.445Z,998.0
2017-10-11T00:47:32.900Z,998.0
2017-10-11T00:48:34.383Z,998.0
2017-10-11T00:49:35.868Z,997.9
2017-10-11T00:50:38.596Z,997.9
2017-10-11T00:51:40.127Z,997.9
2017-10-11T00:52:41.568Z,997.9
2017-10-11T00:53:44.228Z,997.9
2017-10-11T00:54:46.809Z,997.9
2017-10-11T00:55:48.290Z,997.9
2017-10-11T00:56:49.789Z,997.9
2017-10-11T00:57:51.211Z,997.9
2017-10-11T00:58:52.650Z,997.9
2017-10-11T00:59:54.099Z,997.9
2017-10-11T01:00:55.531Z,997.9
2017-10-11T01:01:56.963Z,997.9
2017-10-11T01:02:58.441Z,997.9
2017-10-11T01:03:59.866Z,997.8
2017-10-11T01:05:01.292Z,997.8
2017-10-11T01:06:02.784Z,997.8
2017-10-11T01:07:05.391Z,997.8
2017-10-11T01:08:06.854Z,997.8
2017-10-11T01:09:08.283Z,997.8
2017-10-11T01:10:09.752Z,997.7
2017-10-11T01:11:12.285Z,997.8
2017-10-11T01:12:13.758Z,997.8
2017-10-11T01:13:15.207Z,997.8
2017-10-11T01:14:16.738Z,997.8
2017-10-11T01:15:18.180Z,997.8
2017-10-11T01:16:19.720Z,997.9
2017-10-11T01:17:21.150Z,997.8
2017-10-11T01:18:22.618Z,997.9
2017-10-11T01:19:24.109Z,997.8
2017-10-11T01:20:25.542Z,997.8
2017-10-11T01:21:27.072Z,997.8
2017-10-11T01:22:28.524Z,997.8
2017-10-11T01:23:31.142Z,997.9
2017-10-11T01:24:32.597Z,997.8
2017-10-11T01:25:34.097Z,997.8
2017-10-11T01:26:35.571Z,997.8
2017-10-11T01:27:38.090Z,997.8
2017-10-11T01:28:40.663Z,997.8
2017-10-11T01:29:42.150Z,997.8
2017-10-11T01:30:44.660Z,997.8
2017-10-11T01:31:45.002Z,997.8
2017-10-11T01:32:46.453Z,997.7
2017-10-11T01:33:47.870Z,997.7
2017-10-11T01:34:49.299Z,997.8
2017-10-11T01:35:50.746Z,997.8
2017-10-11T01:36:52.185Z,997.8
2017-10-11T01:37:53.779Z,997.8
2017-10-11T01:38:55.970Z,997.8
2017-10-11T01:39:57.460Z,997.7
2017-10-11T01:40:58.905Z,997.8
2017-10-11T01:42:00.356Z,997.8
2017-10-11T01:43:01.874Z,997.7
2017-10-11T01:44:03.315Z,997.7
2017-10-11T01:45:04.924Z,997.7
2017-10-11T01:46:06.406Z,997.7
2017-10-11T01:47:07.894Z,997.7
2017-10-11T01:48:09.383Z,997.7
2017-10-11T01:49:10.835Z,997.7
2017-10-11T01:50:12.268Z,997.6
2017-10-11T01:51:13.713Z,997.7
2017-10-11T01:52:15.336Z,997.6
2017-10-11T01:53:17.841Z,997.6
2017-10-11T01:54:19.292Z,997.7
2017-10-11T01:55:20.829Z,997.6
2017-10-11T01:56:22.349Z,997.6
2017-10-11T01:57:23.937Z,997.6
2017-10-11T01:58:25.358Z,997.6
2017-10-11T01:59:27.817Z,997.6
2017-10-11T02:00:29.334Z,997.6
2017-10-11T02:01:30.756Z,997.6
2017-10-11T02:02:32.192Z,997.6
2017-10-11T02:03:33.683Z,997.6
2017-10-11T02:04:35.156Z,997.6
2017-10-11T02:05:36.582Z,997.6
2017-10-11T02:06:38.013Z,997.6
2017-10-11T02:07:39.544Z,997.6
2017-10-11T02:08:41.060Z,997.7
2017-10-11T02:09:43.692Z,997.7
2017-10-11T02:10:45.197Z,997.7
2017-10-11T02:11:46.711Z,997.7
2017-10-11T02:12:49.269Z,997.7
2017-10-11T02:13:51.797Z,997.7
2017-10-11T02:14:54.336Z,997.7
2017-10-11T02:15:55.781Z,997.7
2017-10-11T02:16:57.342Z,997.7
2017-10-11T02:17:59.984Z,997.7
2017-10-11T02:19:03.581Z,997.7
2017-10-11T02:20:05.089Z,997.7
2017-10-11T02:21:06.503Z,997.7
2017-10-11T02:22:08.035Z,997.7
2017-10-11T02:23:09.494Z,997.7
2017-10-11T02:24:10.971Z,997.7
2017-10-11T02:25:12.435Z,997.7
2017-10-11T02:26:13.938Z,997.6
2017-10-11T02:27:16.285Z,997.6
2017-10-11T02:28:18.800Z,997.6
2017-10-11T02:29:20.284Z,997.6
2017-10-11T02:30:21.765Z,997.6
2017-10-11T02:31:23.288Z,997.6
2017-10-11T02:32:24.774Z,997.6
2017-10-11T02:33:26.307Z,997.5
2017-10-11T02:34:27.779Z,997.5
2017-10-11T02:35:29.279Z,997.5
2017-10-11T02:36:30.806Z,997.5
2017-10-11T02:37:32.287Z,997.5
2017-10-11T02:38:33.778Z,997.5
2017-10-11T02:39:35.245Z,997.5
2017-10-11T02:40:37.806Z,997.5
2017-10-11T02:41:39.300Z,997.5
2017-10-11T02:42:40.771Z,997.5
2017-10-11T02:43:42.247Z,997.5
2017-10-11T02:44:44.722Z,997.5
2017-10-11T02:45:45.086Z,997.5
2017-10-11T02:46:46.549Z,997.5
2017-10-11T02:47:48.050Z,997.5
2017-10-11T02:48:49.539Z,997.5
2017-10-11T02:49:53.124Z,997.5
2017-10-11T02:50:56.750Z,997.4
2017-10-11T02:51:57.099Z,997.4
2017-10-11T02:52:59.680Z,997.5
2017-10-11T02:54:01.196Z,997.5
2017-10-11T02:55:02.669Z,997.4
2017-10-11T02:56:04.137Z,997.4
2017-10-11T02:57:05.545Z,997.4
2017-10-11T02:58:07.037Z,997.4
2017-10-11T02:59:08.469Z,997.4
2017-10-11T03:00:11.077Z,997.4
2017-10-11T03:01:12.558Z,997.4
2017-10-11T03:02:15.112Z,997.4
2017-10-11T03:03:16.589Z,997.4
2017-10-11T03:04:20.232Z,997.4
2017-10-11T03:05:21.687Z,997.4
2017-10-11T03:06:23.127Z,997.4
2017-10-11T03:07:24.612Z,997.4
2017-10-11T03:08:26.075Z,997.4
2017-10-11T03:09:27.585Z,997.4
2017-10-11T03:10:29.042Z,997.4
2017-10-11T03:11:30.529Z,997.4
2017-10-11T03:12:31.983Z,997.5
2017-10-11T03:13:33.401Z,997.5
2017-10-11T03:14:34.836Z,997.5
2017-10-11T03:15:36.352Z,997.5
2017-10-11T03:16:37.756Z,997.5
2017-10-11T03:17:41.606Z,997.5
2017-10-11T03:18:43.122Z,997.5
2017-10-11T03:19:44.573Z,997.5
2017-10-11T03:20:46.080Z,997.5
2017-10-11T03:21:47.581Z,997.5
2017-10-11T03:22:50.147Z,997.5
2017-10-11T03:23:51.613Z,997.5
2017-10-11T03:24:54.099Z,997.5
2017-10-11T03:25:56.688Z,997.5
2017-10-11T03:26:58.086Z,997.5
2017-10-11T03:27:59.497Z,997.5
2017-10-11T03:29:00.910Z,997.5
2017-10-11T03:30:02.346Z,997.5
2017-10-11T03:31:03.774Z,997.5
2017-10-11T03:32:05.253Z,997.5
2017-10-11T03:33:06.727Z,997.5
2017-10-11T03:34:08.738Z,997.5
2017-10-11T03:35:10.245Z,997.6
2017-10-11T03:36:11.729Z,997.5
2017-10-11T03:37:14.254Z,997.6
2017-10-11T03:38:15.689Z,997.6
2017-10-11T03:39:17.153Z,997.6
2017-10-11T03:40:18.662Z,997.6
2017-10-11T03:41:20.187Z,997.6
2017-10-11T03:42:21.636Z,997.6
2017-10-11T03:43:23.115Z,997.6
2017-10-11T03:44:24.589Z,997.6
2017-10-11T03:45:26.100Z,997.6
2017-10-11T03:46:28.600Z,997.6
2017-10-11T03:47:30.047Z,997.6
2017-10-11T03:48:32.578Z,997.6
2017-10-11T03:49:34.095Z,997.6
2017-10-11T03:50:35.545Z,997.6
2017-10-11T03:51:37.059Z,997.6
2017-10-11T03:52:38.501Z,997.6
2017-10-11T03:53:40.104Z,997.6
2017-10-11T03:54:41.587Z,997.6
2017-10-11T03:55:43.105Z,997.6
2017-10-11T03:56:44.660Z,997.6
2017-10-11T03:57:46.223Z,997.6
2017-10-11T03:58:47.669Z,997.6
2017-10-11T03:59:50.306Z,997.6
2017-10-11T04:00:51.832Z,997.6
2017-10-11T04:01:53.330Z,997.6
2017-10-11T04:02:54.785Z,997.6
2017-10-11T04:03:57.337Z,997.6
2017-10-11T04:04:58.800Z,997.6
2017-10-11T04:06:00.253Z,997.7
2017-10-11T04:07:01.736Z,997.7
2017-10-11T04:08:03.231Z,997.7
2017-10-11T04:09:04.655Z,997.7
2017-10-11T04:10:06.128Z,997.7
2017-10-11T04:11:07.616Z,997.7
2017-10-11T04:12:09.054Z,997.7
2017-10-11T04:13:10.463Z,997.7
2017-10-11T04:14:11.961Z,997.7
2017-10-11T04:15:13.398Z,997.7
2017-10-11T04:16:14.851Z,997.7
2017-10-11T04:17:16.288Z,997.7
2017-10-11T04:18:17.738Z,997.7
2017-10-11T04:19:19.193Z,997.7
2017-10-11T04:20:20.641Z,997.7
2017-10-11T04:21:22.207Z,997.7
2017-10-11T04:22:23.702Z,997.7
2017-10-11T04:23:25.182Z,997.7
2017-10-11T04:24:26.687Z,997.7
2017-10-11T04:25:28.199Z,997.7
2017-10-11T04:26:29.689Z,997.6
2017-10-11T04:27:31.214Z,997.7
2017-10-11T04:28:32.629Z,997.6
2017-10-11T04:29:35.142Z,997.6
2017-10-11T04:30:36.614Z,997.6
2017-10-11T04:31:38.084Z,997.6
2017-10-11T04:32:40.587Z,997.7
2017-10-11T04:33:42.016Z,997.7
2017-10-11T04:34:43.458Z,997.6
2017-10-11T04:35:44.862Z,997.7
2017-10-11T04:36:46.327Z,997.7
2017-10-11T04:37:47.900Z,997.7
2017-10-11T04:38:49.360Z,997.7
2017-10-11T04:39:50.787Z,997.7
2017-10-11T04:40:52.280Z,997.7
2017-10-11T04:41:54.807Z,997.7
2017-10-11T04:42:56.255Z,997.7
2017-10-11T04:43:57.738Z,997.7
2017-10-11T04:44:59.202Z,997.7
2017-10-11T04:46:00.627Z,997.7
2017-10-11T04:47:02.152Z,997.7
2017-10-11T04:48:03.707Z,997.7
2017-10-11T04:49:05.123Z,997.7
2017-10-11T04:50:06.632Z,997.7
2017-10-11T04:51:08.193Z,997.7
2017-10-11T04:52:09.745Z,997.7
2017-10-11T04:53:11.282Z,997.7
2017-10-11T04:54:13.825Z,997.7
2017-10-11T04:55:15.266Z,997.7
2017-10-11T04:56:17.891Z,997.7
2017-10-11T04:57:19.380Z,997.7
2017-10-11T04:58:20.838Z,997.7
2017-10-11T04:59:22.277Z,997.7
2017-10-11T05:00:24.775Z,997.7
2017-10-11T05:01:26.204Z,997.7
2017-10-11T05:02:27.709Z,997.7
2017-10-11T05:03:29.165Z,997.7
2017-10-11T05:04:30.593Z,997.7
2017-10-11T05:05:32.017Z,997.7
2017-10-11T05:06:33.448Z,997.7
2017-10-11T05:07:34.895Z,997.7
2017-10-11T05:08:36.345Z,997.7
2017-10-11T05:09:37.780Z,997.7
2017-10-11T05:10:39.207Z,997.7
2017-10-11T05:11:40.665Z,997.7
2017-10-11T05:12:42.162Z,997.7
2017-10-11T05:13:43.640Z,997.7
2017-10-11T05:14:46.146Z,997.7
2017-10-11T05:15:47.627Z,997.7
2017-10-11T05:16:49.078Z,997.7
2017-10-11T05:17:50.547Z,997.7
2017-10-11T05:18:52.120Z,997.7
2017-10-11T05:19:53.557Z,997.7
2017-10-11T05:20:55.013Z,997.7
2017-10-11T05:21:56.448Z,997.7
2017-10-11T05:22:57.927Z,997.7
2017-10-11T05:23:59.442Z,997.7
2017-10-11T05:25:00.868Z,997.7
2017-10-11T05:26:02.294Z,997.8
2017-10-11T05:27:03.796Z,997.8
2017-10-11T05:28:05.292Z,997.8
2017-10-11T05:29:06.710Z,997.8
2017-10-11T05:30:08.201Z,997.8
2017-10-11T05:31:09.695Z,997.8
2017-10-11T05:32:11.193Z,997.8
2017-10-11T05:33:12.650Z,997.8
2017-10-11T05:34:14.096Z,997.8
2017-10-11T05:35:16.597Z,997.8
2017-10-11T05:36:18.087Z,997.9
2017-10-11T05:37:19.643Z,997.8
2017-10-11T05:38:21.062Z,997.8
2017-10-11T05:39:22.571Z,997.9
2017-10-11T05:40:24.123Z,997.9
2017-10-11T05:41:25.635Z,997.9
2017-10-11T05:42:29.160Z,997.9
2017-10-11T05:43:30.634Z,997.9
2017-10-11T05:44:32.057Z,997.9
2017-10-11T05:45:33.538Z,998.0
2017-10-11T05:46:36.690Z,998.0
2017-10-11T05:47:38.343Z,997.9
2017-10-11T05:48:42.031Z,998.0
2017-10-11T05:49:51.224Z,998.0
2017-10-11T05:50:53.006Z,998.0
2017-10-11T05:51:54.577Z,998.0
2017-10-11T05:52:56.050Z,998.0
2017-10-11T05:53:57.599Z,998.0
2017-10-11T05:54:59.101Z,998.1
2017-10-11T05:56:00.744Z,998.0
2017-10-11T05:57:02.344Z,998.0
2017-10-11T05:58:04.031Z,998.1
2017-10-11T05:59:05.592Z,998.1
2017-10-11T06:00:07.373Z,998.1
2017-10-11T06:01:10.508Z,998.1
2017-10-11T06:02:12.084Z,998.1
2017-10-11T06:03:13.945Z,998.1
2017-10-11T06:04:17.507Z,998.1
2017-10-11T06:05:20.687Z,998.1
2017-10-11T06:06:22.733Z,998.1
2017-10-11T06:08:28.771Z,998.1
2017-10-11T06:09:49.532Z,998.1
2017-10-11T06:13:57.990Z,998.1
2017-10-11T06:15:09.358Z,998.2
2017-10-11T06:16:13.354Z,998.1
2017-10-11T06:17:16.718Z,998.2
2017-10-11T06:19:36.166Z,998.1
2017-10-11T06:20:47.425Z,998.1
2017-10-11T06:21:48.850Z,998.1
2017-10-11T06:22:50.361Z,998.2
2017-10-11T06:23:51.871Z,998.1
2017-10-11T06:24:53.346Z,998.1
2017-10-11T06:25:54.782Z,998.1
2017-10-11T06:26:56.231Z,998.1
2017-10-11T06:27:57.636Z,998.1
2017-10-11T06:28:59.103Z,998.1
2017-10-11T06:30:00.556Z,998.1
2017-10-11T06:31:02.094Z,998.2
2017-10-11T06:32:03.544Z,998.2
2017-10-11T06:33:05.080Z,998.2
2017-10-11T06:34:06.555Z,998.2
2017-10-11T06:35:08.036Z,998.2
2017-10-11T06:36:09.508Z,998.2
2017-10-11T06:37:11.027Z,998.2
2017-10-11T06:38:12.484Z,998.2
2017-10-11T06:39:13.941Z,998.3
2017-10-11T06:40:15.518Z,998.3
2017-10-11T06:41:16.998Z,998.3
2017-10-11T06:42:18.490Z,998.3
2017-10-11T06:43:19.980Z,998.3
2017-10-11T06:44:21.495Z,998.3
2017-10-11T06:45:22.992Z,998.3
2017-10-11T06:46:24.474Z,998.3
2017-10-11T06:47:25.938Z,998.3
2017-10-11T06:48:27.420Z,998.4
2017-10-11T06:49:28.895Z,998.3
2017-10-11T06:50:30.454Z,998.3
2017-10-11T06:51:32.050Z,998.4
2017-10-11T06:52:33.589Z,998.4
2017-10-11T06:53:35.024Z,998.4
2017-10-11T06:54:36.557Z,998.4
2017-10-11T06:55:38.069Z,998.3
2017-10-11T06:56:39.570Z,998.3
2017-10-11T06:57:41.019Z,998.3
2017-10-11T06:58:42.521Z,998.3
2017-10-11T06:59:44.005Z,998.3
2017-10-11T07:00:45.521Z,998.3
2017-10-11T07:01:46.992Z,998.3
2017-10-11T07:02:48.497Z,998.4
2017-10-11T07:03:49.956Z,998.4
2017-10-11T07:04:51.454Z,998.3
2017-10-11T07:05:52.932Z,998.4
2017-10-11T07:06:54.427Z,998.4
2017-10-11T07:07:55.909Z,998.4
2017-10-11T07:08:57.374Z,998.4
2017-10-11T07:09:58.888Z,998.5
2017-10-11T07:11:00.383Z,998.4
2017-10-11T07:12:01.917Z,998.4
2017-10-11T07:13:03.419Z,998.4
2017-10-11T07:14:04.946Z,998.5
2017-10-11T07:15:06.449Z,998.5
2017-10-11T07:16:07.943Z,998.5
2017-10-11T07:17:09.436Z,998.5
2017-10-11T07:18:10.953Z,998.5
2017-10-11T07:19:12.464Z,998.5
2017-10-11T07:20:14.060Z,998.5
2017-10-11T07:21:15.572Z,998.5
2017-10-11T07:22:17.075Z,998.5
2017-10-11T07:23:18.593Z,998.5
2017-10-11T07:24:20.087Z,998.5
2017-10-11T07:25:21.598Z,998.5
2017-10-11T07:26:23.095Z,998.5
2017-10-11T07:27:24.572Z,998.5
2017-10-11T07:28:26.069Z,998.5
2017-10-11T07:29:27.552Z,998.5
2017-10-11T07:30:29.058Z,998.5
2017-10-11T07:31:30.524Z,998.5
2017-10-11T07:32:32.063Z,998.5
2017-10-11T07:33:33.562Z,998.5
2017-10-11T07:34:35.163Z,998.6
2017-10-11T07:35:36.678Z,998.6
2017-10-11T07:36:38.161Z,998.6
2017-10-11T07:37:39.785Z,998.6
2017-10-11T07:38:41.298Z,998.6
2017-10-11T07:39:42.775Z,998.6
2017-10-11T07:40:44.261Z,998.6
2017-10-11T07:41:45.769Z,998.6
2017-10-11T07:42:47.233Z,998.6
2017-10-11T07:43:48.758Z,998.7
2017-10-11T07:44:50.225Z,998.7
2017-10-11T07:45:51.733Z,998.7
2017-10-11T07:46:53.232Z,998.6
2017-10-11T07:47:54.835Z,998.6
2017-10-11T07:48:56.329Z,998.6
2017-10-11T07:49:57.797Z,998.7
2017-10-11T07:50:59.286Z,998.7
2017-10-11T07:52:00.774Z,998.7
2017-10-11T07:53:02.309Z,998.7
2017-10-11T07:54:03.790Z,998.7
2017-10-11T07:55:05.337Z,998.8
2017-10-11T07:56:06.831Z,998.7
2017-10-11T07:57:08.344Z,998.7
2017-10-11T07:58:09.944Z,998.8
2017-10-11T07:59:11.436Z,998.8
2017-10-11T08:00:12.944Z,998.8
2017-10-11T08:01:14.394Z,998.7
2017-10-11T08:02:15.967Z,998.8
2017-10-11T08:03:17.512Z,998.8
2017-10-11T08:04:19.008Z,998.7
2017-10-11T08:05:20.527Z,998.7
2017-10-11T08:06:21.992Z,998.7
2017-10-11T08:07:23.484Z,998.7
2017-10-11T08:08:24.967Z,998.8
2017-10-11T08:09:26.453Z,998.6
2017-10-11T08:10:27.925Z,998.6
2017-10-11T08:11:29.419Z,998.6
2017-10-11T08:12:30.924Z,998.6
2017-10-11T08:13:32.465Z,998.6
2017-10-11T08:14:33.951Z,998.5
2017-10-11T08:15:35.413Z,998.6
2017-10-11T08:16:36.911Z,998.6
2017-10-11T08:17:38.387Z,998.7
2017-10-11T08:18:39.928Z,998.6
2017-10-11T08:19:41.400Z,998.7
2017-10-11T08:20:42.867Z,998.6
2017-10-11T08:21:44.395Z,998.6
2017-10-11T08:22:45.876Z,998.6
2017-10-11T08:23:47.386Z,998.6
2017-10-11T08:24:48.919Z,998.6
2017-10-11T08:25:50.419Z,998.6
2017-10-11T08:26:51.935Z,998.6
2017-10-11T08:27:53.441Z,998.6
2017-10-11T08:28:54.953Z,998.6
2017-10-11T08:29:56.488Z,998.5
2017-10-11T08:30:58.030Z,998.5
2017-10-11T08:31:59.479Z,998.6
2017-10-11T08:33:01.092Z,998.5
2017-10-11T08:34:02.578Z,998.5
2017-10-11T08:35:04.128Z,998.4
2017-10-11T08:36:06.770Z,998.5
2017-10-11T08:37:08.272Z,998.4
2017-10-11T08:38:09.798Z,998.4
2017-10-11T08:39:11.325Z,998.4
2017-10-11T08:40:12.783Z,998.4
2017-10-11T08:41:14.290Z,998.4
2017-10-11T08:42:15.849Z,998.4
2017-10-11T08:43:17.325Z,998.4
2017-10-11T08:44:18.869Z,998.5
2017-10-11T08:45:20.386Z,998.4
2017-10-11T08:46:21.958Z,998.4
2017-10-11T08:47:23.487Z,998.4
2017-10-11T08:48:24.993Z,998.6
2017-10-11T08:49:26.504Z,998.4
2017-10-11T08:50:27.991Z,998.5
2017-10-11T08:51:29.516Z,998.4
2017-10-11T08:52:31.018Z,998.5
2017-10-11T08:53:32.596Z,998.4
2017-10-11T08:54:34.058Z,998.4
2017-10-11T08:55:35.583Z,998.5
2017-10-11T08:56:37.091Z,998.4
2017-10-11T08:57:38.624Z,998.6
2017-10-11T08:58:40.119Z,998.5
2017-10-11T08:59:41.591Z,998.6
2017-10-11T09:00:43.129Z,998.6
2017-10-11T09:01:44.631Z,998.5
2017-10-11T09:02:46.118Z,998.6
2017-10-11T09:03:47.595Z,998.5
2017-10-11T09:04:49.078Z,998.5
2017-10-11T09:05:50.580Z,998.5
2017-10-11T09:06:52.090Z,998.4
2017-10-11T09:07:53.666Z,998.5
2017-10-11T09:08:55.171Z,998.6
2017-10-11T09:09:56.667Z,998.6
2017-10-11T09:10:58.220Z,998.6
2017-10-11T09:11:59.745Z,998.6
2017-10-11T09:13:01.260Z,998.6
2017-10-11T09:14:02.777Z,998.6
2017-10-11T09:15:04.215Z,998.7
2017-10-11T09:16:06.853Z,998.5
2017-10-11T09:17:09.345Z,998.6
2017-10-11T09:18:10.822Z,998.6
2017-10-11T09:19:12.348Z,998.5
2017-10-11T09:20:14.883Z,998.6
2017-10-11T09:21:16.364Z,998.6
2017-10-11T09:22:18.894Z,998.6
2017-10-11T09:23:20.423Z,998.5
2017-10-11T09:24:21.931Z,998.7
2017-10-11T09:25:23.409Z,998.8
2017-10-11T09:26:24.878Z,998.8
2017-10-11T09:27:26.374Z,998.8
2017-10-11T09:28:30.973Z,998.8
2017-10-11T09:29:32.462Z,998.7
2017-10-11T09:30:33.928Z,998.7
2017-10-11T09:31:35.413Z,998.8
2017-10-11T09:32:36.880Z,998.8
2017-10-11T09:33:40.393Z,998.9
2017-10-11T09:34:42.805Z,998.8
2017-10-11T09:35:45.293Z,998.8
2017-10-11T09:36:46.818Z,998.7
2017-10-11T09:37:48.329Z,998.9
2017-10-11T09:38:50.868Z,998.8
2017-10-11T09:39:52.332Z,998.8
2017-10-11T09:40:53.776Z,998.9
2017-10-11T09:41:55.311Z,998.8
2017-10-11T09:42:57.839Z,998.9
2017-10-11T09:44:01.459Z,998.9
2017-10-11T09:45:02.926Z,998.9
2017-10-11T09:46:04.428Z,998.9
2017-10-11T09:47:05.998Z,998.9
2017-10-11T09:48:07.588Z,998.9
2017-10-11T09:49:09.111Z,999.0
2017-10-11T09:50:10.668Z,998.9
2017-10-11T09:51:13.238Z,999.0
2017-10-11T09:52:14.773Z,999.1
2017-10-11T09:53:16.371Z,999.0
2017-10-11T09:54:18.961Z,999.1
2017-10-11T09:55:20.445Z,999.1
2017-10-11T09:56:23.016Z,999.1
2017-10-11T09:57:24.545Z,999.2
2017-10-11T09:58:27.058Z,999.1
2017-10-11T09:59:29.562Z,999.3
2017-10-11T10:00:32.014Z,999.2
2017-10-11T10:01:34.552Z,999.0
2017-10-11T10:02:36.075Z,999.0
2017-10-11T10:03:37.533Z,998.9
2017-10-11T10:04:40.081Z,998.8
2017-10-11T10:05:41.566Z,999.0
2017-10-11T10:06:43.040Z,999.1
2017-10-11T10:07:45.528Z,999.1
2017-10-11T10:08:49.177Z,999.1
2017-10-11T10:09:50.719Z,999.2
2017-10-11T10:10:52.242Z,999.0
2017-10-11T10:11:53.772Z,999.0
2017-10-11T10:12:55.259Z,998.9
2017-10-11T10:13:56.771Z,999.0
2017-10-11T10:14:58.291Z,999.1
2017-10-11T10:15:59.825Z,999.2
2017-10-11T10:17:01.313Z,999.2
2017-10-11T10:18:02.785Z,999.3
2017-10-11T10:19:05.252Z,999.4
2017-10-11T10:20:06.794Z,999.2
2017-10-11T10:21:08.268Z,999.0
2017-10-11T10:22:09.778Z,999.3
2017-10-11T10:23:11.265Z,999.1
2017-10-11T10:24:12.724Z,999.1
2017-10-11T10:25:14.204Z,999.1
2017-10-11T10:26:15.681Z,999.2
2017-10-11T10:27:17.140Z,999.1
2017-10-11T10:28:18.701Z,999.0
2017-10-11T10:29:21.244Z,999.0
2017-10-11T10:30:22.808Z,999.1
2017-10-11T10:31:24.315Z,999.1
2017-10-11T10:32:25.902Z,999.2
2017-10-11T10:33:27.373Z,999.1
2017-10-11T10:34:28.870Z,999.0
2017-10-11T10:35:30.408Z,999.0
2017-10-11T10:36:31.957Z,999.1
2017-10-11T10:37:34.468Z,999.4
2017-10-11T10:38:36.891Z,999.2
2017-10-11T10:39:38.401Z,999.1
2017-10-11T10:40:40.996Z,999.6
2017-10-11T10:41:43.523Z,999.3
2017-10-11T10:42:45.048Z,999.1
2017-10-11T10:43:46.582Z,999.1
2017-10-11T10:44:50.268Z,999.0
2017-10-11T10:45:51.797Z,999.0
2017-10-11T10:46:53.334Z,999.5
2017-10-11T10:47:55.839Z,999.3
2017-10-11T10:48:57.383Z,999.0
2017-10-11T10:49:58.902Z,999.0
2017-10-11T10:51:00.397Z,999.0
2017-10-11T10:52:01.906Z,999.0
2017-10-11T10:53:03.375Z,999.1
2017-10-11T10:54:04.899Z,999.0
2017-10-11T10:55:06.394Z,998.9
2017-10-11T10:56:07.869Z,998.9
2017-10-11T10:57:09.305Z,998.9
2017-10-11T10:58:10.828Z,999.0
2017-10-11T10:59:12.281Z,999.0
2017-10-11T11:00:13.785Z,999.0
2017-10-11T11:01:15.295Z,999.0
2017-10-11T11:02:16.814Z,999.0
2017-10-11T11:03:18.325Z,999.0
2017-10-11T11:04:19.839Z,999.0
2017-10-11T11:05:21.386Z,999.0
2017-10-11T11:06:22.870Z,998.9
2017-10-11T11:07:25.382Z,999.0
2017-10-11T11:08:26.896Z,999.0
2017-10-11T11:09:28.391Z,999.0
2017-10-11T11:10:29.895Z,998.9
2017-10-11T11:11:31.382Z,998.9
2017-10-11T11:12:32.911Z,999.0
2017-10-11T11:13:35.456Z,998.9
2017-10-11T11:14:55.793Z,999.0
2017-10-11T11:15:57.284Z,998.9
2017-10-11T11:16:58.839Z,998.8
2017-10-11T11:18:00.286Z,998.9
2017-10-11T11:19:01.748Z,998.9
2017-10-11T11:20:04.264Z,999.0
2017-10-11T11:21:05.850Z,999.0
2017-10-11T11:22:07.331Z,998.9
2017-10-11T11:23:08.836Z,998.9
2017-10-11T11:24:10.367Z,998.8
2017-10-11T11:25:11.854Z,998.8
2017-10-11T11:26:13.333Z,998.8
2017-10-11T11:27:14.838Z,998.8
2017-10-11T11:28:16.426Z,998.8
2017-10-11T11:29:17.942Z,998.9
2017-10-11T11:30:19.475Z,998.8
2017-10-11T11:31:21.022Z,998.8
2017-10-11T11:32:22.597Z,998.8
2017-10-11T11:33:24.158Z,998.8
2017-10-11T11:34:25.695Z,998.7
2017-10-11T11:35:27.219Z,998.8
2017-10-11T11:36:41.584Z,998.7
2017-10-11T11:37:44.298Z,998.7
2017-10-11T11:38:50.143Z,998.7
2017-10-11T11:39:51.655Z,998.6
2017-10-11T11:40:53.230Z,998.7
2017-10-11T11:41:55.937Z,998.7
2017-10-11T11:42:58.249Z,998.7
2017-10-11T11:44:00.535Z,998.7
2017-10-11T11:45:02.845Z,998.7
2017-10-11T11:46:04.881Z,998.6
2017-10-11T11:47:06.790Z,998.6
2017-10-11T11:48:08.415Z,998.6
2017-10-11T11:49:10.170Z,998.7
2017-10-11T11:50:11.636Z,998.7
2017-10-11T11:51:13.133Z,998.7
2017-10-11T11:52:14.614Z,998.7
2017-10-11T11:53:16.114Z,998.7
2017-10-11T11:54:17.657Z,998.7
2017-10-11T11:55:19.188Z,998.8
2017-10-11T11:56:20.647Z,998.8
2017-10-11T11:57:22.148Z,998.8
2017-10-11T11:58:23.621Z,998.8
2017-10-11T11:59:26.081Z,998.7
2017-10-11T12:00:27.524Z,998.7
2017-10-11T12:01:29.029Z,998.7
2017-10-11T12:02:30.434Z,998.8
2017-10-11T12:03:31.919Z,998.7
2017-10-11T12:04:33.419Z,998.6
2017-10-11T12:05:34.916Z,998.6
2017-10-11T12:06:36.345Z,998.6
2017-10-11T12:07:37.775Z,998.6
2017-10-11T12:08:39.204Z,998.6
2017-10-11T12:09:40.662Z,998.6
2017-10-11T12:10:43.168Z,998.6
2017-10-11T12:11:44.647Z,998.6
2017-10-11T12:12:46.181Z,998.6
2017-10-11T12:13:47.686Z,998.6
2017-10-11T12:14:49.184Z,998.7
2017-10-11T12:15:50.709Z,998.6
2017-10-11T12:16:52.206Z,998.6
2017-10-11T12:17:53.706Z,998.7
2017-10-11T12:18:56.174Z,998.5
2017-10-11T12:19:58.668Z,998.5
2017-10-11T12:21:00.165Z,998.5
2017-10-11T12:22:01.678Z,998.5
2017-10-11T12:23:03.127Z,998.4
2017-10-11T12:24:04.606Z,998.4
2017-10-11T12:25:06.094Z,998.4
2017-10-11T12:26:07.626Z,998.4
2017-10-11T12:27:09.116Z,998.3
2017-10-11T12:28:11.639Z,998.4
2017-10-11T12:29:14.097Z,998.4
2017-10-11T12:30:15.553Z,998.4
2017-10-11T12:31:17.045Z,998.4
2017-10-11T12:32:18.503Z,998.4
2017-10-11T12:33:19.957Z,998.3
2017-10-11T12:34:21.417Z,998.4
2017-10-11T12:35:22.823Z,998.3
2017-10-11T12:36:24.235Z,998.4
2017-10-11T12:37:25.647Z,998.3
2017-10-11T12:38:27.060Z,998.3
2017-10-11T12:39:28.486Z,998.3
2017-10-11T12:40:29.987Z,998.3
2017-10-11T12:41:31.457Z,998.3
2017-10-11T12:42:32.915Z,998.2
2017-10-11T12:43:34.346Z,998.2
2017-10-11T12:44:35.864Z,998.2
2017-10-11T12:45:37.316Z,998.2
2017-10-11T12:46:38.735Z,998.2
2017-10-11T12:47:40.199Z,998.2
2017-10-11T12:48:41.646Z,998.2
2017-10-11T12:49:43.078Z,998.2
2017-10-11T12:50:44.502Z,998.2
2017-10-11T12:51:45.951Z,998.1
2017-10-11T12:52:47.409Z,998.1
2017-10-11T12:53:48.868Z,998.1
2017-10-11T12:54:50.341Z,998.1
2017-10-11T12:55:51.797Z,998.1
2017-10-11T12:56:53.243Z,998.1
2017-10-11T12:57:55.635Z,998.1
2017-10-11T12:58:57.049Z,998.1
2017-10-11T12:59:58.463Z,998.1
2017-10-11T13:01:00.906Z,998.0
2017-10-11T13:02:03.433Z,998.0
2017-10-11T13:03:04.913Z,998.0
2017-10-11T13:04:06.329Z,998.1
2017-10-11T13:05:07.749Z,998.0
2017-10-11T13:06:09.295Z,998.0
2017-10-11T13:07:10.719Z,998.0
2017-10-11T13:08:13.170Z,998.1
2017-10-11T13:09:14.580Z,998.0
2017-10-11T13:10:16.031Z,998.0
2017-10-11T13:11:17.439Z,998.0
2017-10-11T13:12:19.860Z,998.0
2017-10-11T13:13:21.268Z,998.0
2017-10-11T13:14:22.687Z,998.0
2017-10-11T13:15:24.101Z,998.0
2017-10-11T13:16:25.506Z,998.0
2017-10-11T13:17:26.910Z,997.9
2017-10-11T13:18:28.317Z,997.9
2017-10-11T13:19:29.729Z,998.0
2017-10-11T13:20:31.150Z,997.9